Time;durP1;ratioP1;P1;durP2;ratioP2;P2;SDS_P1;SDS_P2;PMS_P1;PMS_P2;Temp;Humidity;BMP_temperature;BMP_pressure;BME280_temperature;BME280_humidity;BME280_pressure;Samples;Min_cycle;Max_cycle;Signal;HPM_P1;HPM_P2
2023/05/29 00:01:08;;;;;;;;;;;;;;;20.73;73.41;99333.41;5094643;28;19962;-42
2023/05/29 00:03:34;;;;;;;;;;;;;;;20.56;73.56;99331.88;5094893;28;20006;-42
2023/05/29 00:06:02;;;;;;;;;;;;;;;20.72;73.04;99334.53;5094825;28;20002;-42
2023/05/29 00:08:27;;;;;;;;;;;;;;;20.31;74.07;99333.63;5094507;28;19964;-41
2023/05/29 00:10:53;;;;;;;;;;;;;;;20.30;74.02;99331.19;5094556;28;19916;-41
2023/05/29 00:13:18;;;;;;;;;;;;;;;20.40;73.97;99331.13;5094202;28;20284;-42
2023/05/29 00:15:43;;;;;;;;;;;;;;;20.48;73.73;99338.66;5094048;28;19916;-42
2023/05/29 00:18:08;;;;;;;;;;;;;;;20.55;73.59;99340.25;5094337;28;19912;-40
2023/05/29 00:20:34;;;;;;;;;;;;;;;20.51;73.56;99338.09;5094411;28;19912;-42
2023/05/29 00:23:01;;;;;;;;;;;;;;;20.39;74.09;99334.13;5094340;28;20003;-41
2023/05/29 00:25:26;;;;;;;;;;;;;;;20.24;74.17;99340.41;5094299;28;19935;-42
2023/05/29 00:27:51;;;;;;;;;;;;;;;20.21;74.56;99341.75;5094189;28;20349;-41
2023/05/29 00:30:16;;;;;;;;;;;;;;;20.27;74.54;99329.03;5094058;28;19924;-42
2023/05/29 00:32:42;;;;;;;;;;;;;;;20.35;74.49;99324.94;5094309;28;19912;-41
2023/05/29 00:35:08;;;;;;;;;;;;;;;20.52;73.50;99320.00;5094361;28;19912;-41
2023/05/29 00:37:34;;;;;;;;;;;;;;;20.49;73.41;99320.56;5093853;28;19995;-42
2023/05/29 00:39:59;;;;;;;;;;;;;;;20.25;73.47;99325.81;5093898;28;19966;-41
2023/05/29 00:42:24;;;;;;;;;;;;;;;20.01;75.61;99322.94;5094000;28;19987;-41
2023/05/29 00:44:50;;;;;;;;;;;;;;;20.07;75.21;99332.66;5093706;28;19912;-42
2023/05/29 00:47:15;;;;;;;;;;;;;;;20.16;75.33;99325.56;5094061;28;19912;-40
2023/05/29 00:49:41;;;;;;;;;;;;;;;20.34;74.80;99331.47;5094027;28;19915;-41
2023/05/29 00:52:07;;;;;;;;;;;;;;;20.40;74.19;99319.53;5093474;28;19918;-42
2023/05/29 00:54:33;;;;;;;;;;;;;;;20.32;74.59;99310.13;5093910;28;19976;-42
2023/05/29 00:56:59;;;;;;;;;;;;;;;20.47;74.30;99317.34;5093593;28;19978;-41
2023/05/29 00:59:29;;;;;;;;;;;;;;;20.51;73.86;99319.19;5093862;28;20367;-41
2023/05/29 01:01:55;;;;;;;;;;;;;;;20.37;73.61;99323.59;5093549;28;19994;-41
2023/05/29 01:04:23;;;;;;;;;;;;;;;20.24;74.44;99326.91;5100117;28;19916;-42
2023/05/29 01:06:49;;;;;;;;;;;;;;;19.98;75.79;99318.09;5102119;28;20012;-41
2023/05/29 01:09:14;;;;;;;;;;;;;;;19.91;76.67;99319.22;5103900;28;19946;-42
2023/05/29 01:11:42;;;;;;;;;;;;;;;20.14;76.46;99308.84;5101397;28;19911;-42
2023/05/29 01:14:09;;;;;;;;;;;;;;;20.31;75.42;99306.63;5103796;28;19916;-41
2023/05/29 01:16:42;;;;;;;;;;;;;;;20.34;75.90;99312.53;5101764;28;20021;-43
2023/05/29 01:19:08;;;;;;;;;;;;;;;20.29;74.85;99313.38;5101990;28;19912;-40
2023/05/29 01:21:51;;;;;;;;;;;;;;;20.28;75.12;99314.47;5103642;28;19919;-42
2023/05/29 01:24:30;;;;;;;;;;;;;;;20.18;75.26;99315.31;5098443;28;19912;-42
2023/05/29 01:27:00;;;;;;;;;;;;;;;20.25;75.18;99306.91;5093197;28;19912;-42
2023/05/29 01:29:27;;;;;;;;;;;;;;;20.05;75.33;99310.53;5092974;28;19920;-43
2023/05/29 01:31:53;;;;;;;;;;;;;;;20.23;74.76;99306.38;5092882;28;19916;-42
2023/05/29 01:34:18;;;;;;;;;;;;;;;20.25;73.70;99307.69;5093251;28;19969;-41
2023/05/29 01:36:43;;;;;;;;;;;;;;;20.10;74.47;99305.91;5092494;28;19920;-42
2023/05/29 01:39:09;;;;;;;;;;;;;;;19.88;74.46;99300.84;5086746;28;20015;-42
2023/05/29 01:41:35;;;;;;;;;;;;;;;20.08;74.28;99304.56;5092413;28;19951;-42
2023/05/29 01:44:01;;;;;;;;;;;;;;;19.94;74.49;99309.75;5092173;28;19943;-42
2023/05/29 01:46:28;;;;;;;;;;;;;;;20.13;73.98;99307.22;5092908;28;19912;-42
2023/05/29 01:48:55;;;;;;;;;;;;;;;20.00;73.36;99305.94;5092548;28;20292;-42
2023/05/29 01:51:20;;;;;;;;;;;;;;;20.04;74.04;99308.91;5092417;28;19991;-42
2023/05/29 01:53:46;;;;;;;;;;;;;;;20.11;72.63;99310.22;5092925;28;19950;-42
2023/05/29 01:56:11;;;;;;;;;;;;;;;19.98;73.81;99304.59;5092371;28;20033;-42
2023/05/29 01:58:37;;;;;;;;;;;;;;;19.81;72.74;99307.63;5092115;28;19912;-40
2023/05/29 02:01:06;;;;;;;;;;;;;;;19.81;73.27;99316.53;5092248;28;19935;-41
2023/05/29 02:03:31;;;;;;;;;;;;;;;19.93;72.85;99310.81;5092516;28;19916;-41
2023/05/29 02:05:57;;;;;;;;;;;;;;;19.75;73.59;99322.22;5092682;28;19919;-40
2023/05/29 02:08:22;;;;;;;;;;;;;;;19.45;73.59;99319.28;5092599;28;19912;-41
2023/05/29 02:10:48;;;;;;;;;;;;;;;19.66;72.97;99324.63;5092204;28;20337;-41
2023/05/29 02:13:13;;;;;;;;;;;;;;;19.69;74.29;99319.50;5092385;28;19918;-41
2023/05/29 02:15:38;;;;;;;;;;;;;;;19.73;73.60;99320.59;5092297;28;20364;-42
2023/05/29 02:18:03;;;;;;;;;;;;;;;19.78;73.08;99321.66;5092857;28;19912;-42
2023/05/29 02:20:29;;;;;;;;;;;;;;;19.94;73.14;99320.53;5091380;28;19969;-42
2023/05/29 02:22:54;;;;;;;;;;;;;;;19.87;73.08;99320.03;5091771;28;19912;-41
2023/05/29 02:25:20;;;;;;;;;;;;;;;19.95;73.39;99321.34;5091713;28;19916;-42
2023/05/29 02:27:45;;;;;;;;;;;;;;;19.99;73.08;99314.31;5091260;28;19919;-42
2023/05/29 02:30:11;;;;;;;;;;;;;;;20.13;72.36;99322.66;5091583;28;19928;-42
2023/05/29 02:32:36;;;;;;;;;;;;;;;20.12;72.07;99316.41;5094254;28;20355;-42
2023/05/29 02:35:02;;;;;;;;;;;;;;;20.01;72.30;99318.38;5090172;28;20795;-42
2023/05/29 02:37:27;;;;;;;;;;;;;;;20.03;72.32;99320.75;5091874;28;19916;-42
2023/05/29 02:39:53;;;;;;;;;;;;;;;20.25;71.50;99326.63;5097979;28;20332;-40
2023/05/29 02:42:18;;;;;;;;;;;;;;;20.25;71.16;99329.31;5092061;28;19981;-42
2023/05/29 02:44:44;;;;;;;;;;;;;;;20.26;71.74;99336.34;5091680;28;20006;-41
2023/05/29 02:47:09;;;;;;;;;;;;;;;20.37;71.97;99325.47;5091561;28;19920;-41
2023/05/29 02:49:34;;;;;;;;;;;;;;;20.46;71.45;99318.41;5091601;28;20368;-42
2023/05/29 02:52:00;;;;;;;;;;;;;;;20.54;70.92;99319.72;5091789;28;19923;-42
2023/05/29 02:54:25;;;;;;;;;;;;;;;20.49;70.81;99328.69;5091904;28;19919;-40
2023/05/29 02:56:51;;;;;;;;;;;;;;;20.35;71.16;99319.56;5091674;28;19927;-41
2023/05/29 02:59:16;;;;;;;;;;;;;;;20.45;71.02;99322.22;5103263;28;20015;-41
2023/05/29 03:01:42;;;;;;;;;;;;;;;20.60;70.56;99324.03;5111896;28;20375;-41
2023/05/29 03:04:08;;;;;;;;;;;;;;;20.60;70.67;99337.53;5112040;28;19912;-41
2023/05/29 03:06:34;;;;;;;;;;;;;;;20.40;71.09;99338.44;5112179;28;19954;-41
2023/05/29 03:08:59;;;;;;;;;;;;;;;20.41;73.62;99338.19;5112025;28;20334;-41
2023/05/29 03:11:24;;;;;;;;;;;;;;;20.75;74.22;99339.34;5112045;28;19918;-42
2023/05/29 03:13:50;;;;;;;;;;;;;;;21.13;72.74;99339.63;5098888;28;20004;-41
2023/05/29 03:16:16;;;;;;;;;;;;;;;21.20;73.63;99340.09;5090306;28;19960;-41
2023/05/29 03:18:41;;;;;;;;;;;;;;;21.53;72.07;99341.16;5086436;28;19920;-41
2023/05/29 03:21:07;;;;;;;;;;;;;;;21.73;71.11;99342.09;5091138;28;19912;-40
2023/05/29 03:23:32;;;;;;;;;;;;;;;21.80;70.61;99346.06;5089447;28;19919;-41
2023/05/29 03:25:58;;;;;;;;;;;;;;;21.83;69.44;99342.75;5090825;28;20346;-40
2023/05/29 03:28:23;;;;;;;;;;;;;;;21.85;67.69;99345.19;5091257;28;19919;-40
2023/05/29 03:30:48;;;;;;;;;;;;;;;21.73;67.30;99347.50;5091743;28;20456;-41
2023/05/29 03:33:13;;;;;;;;;;;;;;;21.64;67.24;99350.00;5093226;28;19912;-41
2023/05/29 03:35:39;;;;;;;;;;;;;;;21.40;67.63;99350.75;5092664;28;19920;-41
2023/05/29 03:38:04;;;;;;;;;;;;;;;21.43;68.17;99350.16;5092341;28;19912;-41
2023/05/29 03:40:29;;;;;;;;;;;;;;;21.43;67.63;99352.06;5093088;28;19912;-41
2023/05/29 03:42:55;;;;;;;;;;;;;;;21.31;68.53;99351.66;5110440;28;19916;-42
2023/05/29 03:45:20;;;;;;;;;;;;;;;20.99;69.30;99364.59;5113445;28;19922;-42
2023/05/29 03:47:45;;;;;;;;;;;;;;;21.12;69.02;99363.16;5114089;28;19923;-41
2023/05/29 03:50:14;;;;;;;;;;;;;;;21.12;69.35;99356.94;5113380;28;19911;-42
2023/05/29 03:52:40;;;;;;;;;;;;;;;21.21;68.81;99357.94;5110537;27;19919;-41
2023/05/29 03:55:08;;;;;;;;;;;;;;;21.20;68.60;99357.13;5101565;28;19934;-41
2023/05/29 03:57:33;;;;;;;;;;;;;;;21.15;68.74;99359.91;5094115;28;19916;-40
2023/05/29 03:59:58;;;;;;;;;;;;;;;21.12;69.03;99360.47;5093937;28;19919;-42
2023/05/29 04:02:24;;;;;;;;;;;;;;;21.15;68.65;99359.06;5099489;28;19920;-41
2023/05/29 04:04:50;;;;;;;;;;;;;;;21.06;69.28;99365.09;5094746;28;19912;-41
2023/05/29 04:07:17;;;;;;;;;;;;;;;20.98;69.41;99365.72;5094630;28;19919;-41
2023/05/29 04:09:42;;;;;;;;;;;;;;;20.85;70.22;99369.03;5094615;28;19989;-41
2023/05/29 04:12:08;;;;;;;;;;;;;;;21.04;69.08;99369.97;5094318;28;19912;-41
2023/05/29 04:14:34;;;;;;;;;;;;;;;20.73;69.56;99377.47;5094019;28;19978;-41
2023/05/29 04:16:59;;;;;;;;;;;;;;;20.69;69.89;99376.41;5093972;28;20340;-40
2023/05/29 04:19:24;;;;;;;;;;;;;;;20.82;69.26;99369.59;5094630;28;19919;-41
2023/05/29 04:21:50;;;;;;;;;;;;;;;20.89;68.76;99375.50;5094212;28;19919;-42
2023/05/29 04:24:16;;;;;;;;;;;;;;;21.03;68.37;99376.47;5094292;28;19916;-42
2023/05/29 04:26:41;;;;;;;;;;;;;;;21.07;68.22;99377.50;5093931;28;19920;-41
2023/05/29 04:29:08;;;;;;;;;;;;;;;20.92;68.69;99385.75;5094037;28;19920;-42
2023/05/29 04:31:33;;;;;;;;;;;;;;;20.95;68.52;99393.31;5093685;28;19978;-42
2023/05/29 04:34:00;;;;;;;;;;;;;;;20.89;69.36;99394.44;5092587;28;19912;-41
2023/05/29 04:36:26;;;;;;;;;;;;;;;21.09;68.26;99404.28;5093510;28;19924;-37
2023/05/29 04:38:52;;;;;;;;;;;;;;;21.14;67.59;99395.34;5093338;28;20299;-38
2023/05/29 04:41:17;;;;;;;;;;;;;;;21.18;67.40;99401.81;5093194;28;20032;-38
2023/05/29 04:43:43;;;;;;;;;;;;;;;21.21;66.86;99399.34;5092610;28;20320;-37
2023/05/29 04:46:12;;;;;;;;;;;;;;;21.26;66.68;99393.06;5093675;28;19961;-38
2023/05/29 04:48:40;;;;;;;;;;;;;;;21.33;66.63;99403.59;5093395;28;20387;-36
2023/05/29 04:51:05;;;;;;;;;;;;;;;21.24;66.66;99400.66;5093372;28;19916;-37
2023/05/29 04:53:31;;;;;;;;;;;;;;;20.95;67.13;99397.91;5093530;28;20360;-37
2023/05/29 04:55:56;;;;;;;;;;;;;;;20.38;68.58;99402.78;5093507;28;19920;-36
2023/05/29 04:58:21;;;;;;;;;;;;;;;20.38;69.51;99408.97;5092700;28;19927;-36
2023/05/29 05:00:47;;;;;;;;;;;;;;;20.50;69.19;99406.78;5093245;28;19916;-37
2023/05/29 05:03:16;;;;;;;;;;;;;;;20.37;68.82;99414.66;5093174;28;20232;-37
2023/05/29 05:05:43;;;;;;;;;;;;;;;20.63;68.67;99418.88;5092032;28;19916;-37
2023/05/29 05:08:09;;;;;;;;;;;;;;;20.84;68.45;99411.47;5092998;28;19947;-36
2023/05/29 05:10:34;;;;;;;;;;;;;;;21.02;67.98;99417.34;5092700;28;19923;-35
2023/05/29 05:13:02;;;;;;;;;;;;;;;21.00;67.86;99414.91;5092867;28;19946;-36
2023/05/29 05:15:27;;;;;;;;;;;;;;;20.99;68.38;99418.69;5093139;28;19912;-36
2023/05/29 05:17:53;;;;;;;;;;;;;;;21.11;67.86;99418.34;5093109;28;20259;-36
2023/05/29 05:20:18;;;;;;;;;;;;;;;21.02;68.14;99420.84;5092822;28;19916;-36
2023/05/29 05:22:43;;;;;;;;;;;;;;;20.95;67.58;99417.66;5092227;28;19911;-36
2023/05/29 05:25:09;;;;;;;;;;;;;;;20.92;66.68;99429.00;5092515;28;19922;-37
2023/05/29 05:27:34;;;;;;;;;;;;;;;20.40;67.48;99425.72;5092285;28;19940;-37
2023/05/29 05:29:59;;;;;;;;;;;;;;;20.50;67.84;99428.41;5092379;28;20015;-37
2023/05/29 05:32:25;;;;;;;;;;;;;;;20.33;69.28;99427.91;5092420;28;20242;-37
2023/05/29 05:34:50;;;;;;;;;;;;;;;20.55;68.33;99427.56;5092200;28;20326;-36
2023/05/29 05:37:15;;;;;;;;;;;;;;;20.68;67.44;99431.59;5091135;28;19916;-36
2023/05/29 05:39:40;;;;;;;;;;;;;;;20.71;66.67;99436.41;5091128;28;19924;-37
2023/05/29 05:42:06;;;;;;;;;;;;;;;20.86;65.70;99440.94;5092064;28;19923;-36
2023/05/29 05:44:31;;;;;;;;;;;;;;;20.48;67.65;99435.16;5091392;28;19974;-36
2023/05/29 05:46:56;;;;;;;;;;;;;;;20.80;66.36;99445.56;5091963;28;19912;-36
2023/05/29 05:49:21;;;;;;;;;;;;;;;20.95;66.15;99449.31;5092078;28;19959;-36
2023/05/29 05:51:47;;;;;;;;;;;;;;;20.82;68.15;99442.59;5092032;28;20338;-36
2023/05/29 05:54:12;;;;;;;;;;;;;;;20.77;68.51;99445.31;5092325;28;19969;-36
2023/05/29 05:56:38;;;;;;;;;;;;;;;20.95;66.79;99447.41;5091621;28;19916;-36
2023/05/29 05:59:03;;;;;;;;;;;;;;;21.05;66.01;99444.63;5089834;28;20365;-36
2023/05/29 06:01:28;;;;;;;;;;;;;;;21.24;65.94;99444.75;5091076;28;19999;-37
2023/05/29 06:03:54;;;;;;;;;;;;;;;21.20;67.14;99449.13;5091503;28;19912;-36
2023/05/29 06:06:19;;;;;;;;;;;;;;;21.50;66.00;99439.22;5091930;28;20347;-37
2023/05/29 06:08:45;;;;;;;;;;;;;;;20.98;67.67;99441.44;5091329;28;20218;-36
2023/05/29 06:11:11;;;;;;;;;;;;;;;20.87;68.20;99440.69;5089491;28;20437;-36
2023/05/29 06:13:36;;;;;;;;;;;;;;;20.75;68.45;99439.38;5089145;28;19912;-36
2023/05/29 06:16:01;;;;;;;;;;;;;;;20.76;68.74;99432.91;5089111;28;20573;-36
2023/05/29 06:18:27;;;;;;;;;;;;;;;20.61;69.08;99433.78;5089304;28;19912;-35
2023/05/29 06:20:52;;;;;;;;;;;;;;;21.32;66.27;99435.25;5090043;28;19920;-36
2023/05/29 06:23:17;;;;;;;;;;;;;;;21.40;65.74;99409.47;5090140;28;20025;-35
2023/05/29 06:25:43;;;;;;;;;;;;;;;21.70;65.52;99437.41;5090445;28;19916;-44
2023/05/29 06:28:08;;;;;;;;;;;;;;;22.04;64.68;99434.66;5090492;28;19939;-36
2023/05/29 06:30:34;;;;;;;;;;;;;;;22.09;62.99;99444.63;5090466;28;19935;-36
2023/05/29 06:32:59;;;;;;;;;;;;;;;22.09;64.04;99445.44;5090796;28;19920;-35
2023/05/29 06:35:24;;;;;;;;;;;;;;;22.12;63.20;99447.56;5090893;28;19916;-37
2023/05/29 06:37:49;;;;;;;;;;;;;;;22.11;62.77;99445.16;5090852;28;19923;-41
2023/05/29 06:40:18;;;;;;;;;;;;;;;22.22;62.56;99452.09;5090805;28;19967;-41
2023/05/29 06:42:46;;;;;;;;;;;;;;;22.28;62.29;99442.81;5090858;28;19969;-42
2023/05/29 06:45:14;;;;;;;;;;;;;;;21.96;63.62;99446.91;5090690;28;20367;-40
2023/05/29 06:47:40;;;;;;;;;;;;;;;22.76;61.63;99450.91;5090904;28;19912;-41
2023/05/29 06:50:06;;;;;;;;;;;;;;;23.20;60.60;99449.78;5090715;28;19965;-41
2023/05/29 06:52:31;;;;;;;;;;;;;;;23.47;59.63;99448.28;5090975;28;20015;-42
2023/05/29 06:54:56;;;;;;;;;;;;;;;23.58;59.35;99446.22;5090688;28;19912;-41
2023/05/29 06:57:22;;;;;;;;;;;;;;;23.01;60.70;99455.19;5090319;28;19971;-42
2023/05/29 06:59:47;;;;;;;;;;;;;;;22.62;61.67;99450.81;5090828;28;19959;-41
2023/05/29 07:02:12;;;;;;;;;;;;;;;22.97;61.26;99446.00;5090750;28;20006;-41
2023/05/29 07:04:37;;;;;;;;;;;;;;;22.43;61.76;99445.34;5090651;28;19912;-42
2023/05/29 07:07:03;;;;;;;;;;;;;;;22.72;61.67;99449.88;5093746;28;19912;-43
2023/05/29 07:09:28;;;;;;;;;;;;;;;23.22;60.50;99450.28;5095301;28;20015;-43
2023/05/29 07:11:53;;;;;;;;;;;;;;;23.73;58.69;99443.25;5094929;28;19920;-40
2023/05/29 07:14:19;;;;;;;;;;;;;;;24.13;58.07;99442.84;5095207;28;19916;-42
2023/05/29 07:16:44;;;;;;;;;;;;;;;24.06;57.45;99443.22;5095007;28;20372;-44
2023/05/29 07:19:11;;;;;;;;;;;;;;;24.17;56.44;99444.63;5094936;28;19922;-41
2023/05/29 07:21:36;;;;;;;;;;;;;;;23.98;56.11;99455.59;5094706;28;19916;-43
2023/05/29 07:24:01;;;;;;;;;;;;;;;24.32;55.99;99453.63;5095537;28;19938;-41
2023/05/29 07:26:27;;;;;;;;;;;;;;;24.60;55.14;99446.28;5095176;28;20247;-41
2023/05/29 07:28:52;;;;;;;;;;;;;;;25.02;53.84;99454.34;5094241;28;19939;-43
2023/05/29 07:31:17;;;;;;;;;;;;;;;24.61;54.46;99458.75;5094467;28;19916;-44
2023/05/29 07:33:43;;;;;;;;;;;;;;;23.87;55.27;99453.34;5093963;28;19919;-42
2023/05/29 07:36:08;;;;;;;;;;;;;;;23.63;55.76;99451.56;5094221;28;19973;-42
2023/05/29 07:38:33;;;;;;;;;;;;;;;23.71;56.81;99450.09;5094492;28;19943;-42
2023/05/29 07:40:58;;;;;;;;;;;;;;;24.15;55.67;99452.28;5094353;28;20018;-40
2023/05/29 07:43:24;;;;;;;;;;;;;;;24.83;54.42;99457.22;5094137;28;19962;-43
2023/05/29 07:45:49;;;;;;;;;;;;;;;24.38;55.48;99455.13;5094408;28;19935;-42
2023/05/29 07:48:15;;;;;;;;;;;;;;;24.72;54.10;99454.72;5094462;28;19912;-41
2023/05/29 07:50:40;;;;;;;;;;;;;;;24.64;54.00;99451.94;5094301;28;19951;-42
2023/05/29 07:53:06;;;;;;;;;;;;;;;24.52;54.65;99457.88;5094351;28;19981;-40
2023/05/29 07:55:31;;;;;;;;;;;;;;;24.71;54.73;99457.75;5094161;28;19916;-43
2023/05/29 07:57:57;;;;;;;;;;;;;;;25.17;52.91;99463.00;5094265;28;19934;-44
2023/05/29 08:00:23;;;;;;;;;;;;;;;25.11;53.72;99464.22;5093948;28;19912;-42
2023/05/29 08:02:48;;;;;;;;;;;;;;;25.21;53.89;99457.75;5093525;28;20380;-41
2023/05/29 08:05:13;;;;;;;;;;;;;;;25.02;52.85;99454.34;5093692;28;19918;-41
2023/05/29 08:07:39;;;;;;;;;;;;;;;25.40;50.78;99457.59;5094070;28;19923;-40
2023/05/29 08:10:05;;;;;;;;;;;;;;;25.46;50.84;99456.34;5093641;28;19912;-42
2023/05/29 08:12:30;;;;;;;;;;;;;;;25.78;49.71;99454.50;5093719;28;19912;-42
2023/05/29 08:14:56;;;;;;;;;;;;;;;25.74;49.99;99450.75;5093374;28;19962;-44
2023/05/29 08:17:21;;;;;;;;;;;;;;;25.79;50.63;99460.75;5092495;28;19920;-43
2023/05/29 08:19:46;;;;;;;;;;;;;;;25.71;50.12;99454.91;5093472;28;19912;-42
2023/05/29 08:22:14;;;;;;;;;;;;;;;26.33;49.87;99445.94;5093161;28;20026;-43
2023/05/29 08:24:39;;;;;;;;;;;;;;;26.56;49.15;99453.22;5093672;28;19912;-42
2023/05/29 08:27:05;;;;;;;;;;;;;;;26.92;48.13;99450.25;5093384;28;19961;-41
2023/05/29 08:29:30;;;;;;;;;;;;;;;26.94;48.44;99455.41;5093521;28;19977;-43
2023/05/29 08:31:56;;;;;;;;;;;;;;;27.20;47.79;99455.44;5093517;28;19917;-42
2023/05/29 08:34:21;;;;;;;;;;;;;;;27.11;47.39;99452.69;5093433;28;19912;-43
2023/05/29 08:36:46;;;;;;;;;;;;;;;27.40;47.01;99449.34;5093211;28;19938;-42
2023/05/29 08:39:11;;;;;;;;;;;;;;;27.61;46.04;99449.47;5093064;28;19924;-43
2023/05/29 08:41:55;;;;;;;;;;;;;;;27.92;45.79;99444.94;5092838;28;19912;-43
2023/05/29 08:44:22;;;;;;;;;;;;;;;28.63;45.67;99436.09;5093324;28;19934;-42
2023/05/29 08:46:49;;;;;;;;;;;;;;;28.56;43.96;99431.16;5093110;28;20449;-42
2023/05/29 08:49:16;;;;;;;;;;;;;;;28.62;43.24;99429.03;5093100;28;20011;-41
2023/05/29 08:51:44;;;;;;;;;;;;;;;28.79;43.02;99431.63;5092956;28;19912;-42
2023/05/29 08:54:11;;;;;;;;;;;;;;;28.93;42.29;99428.63;5093056;28;19912;-36
2023/05/29 08:56:36;;;;;;;;;;;;;;;29.59;40.84;99419.69;5093044;28;19923;-36
2023/05/29 08:59:02;;;;;;;;;;;;;;;29.94;39.72;99416.56;5093126;28;19998;-37
2023/05/29 09:01:28;;;;;;;;;;;;;;;29.81;39.97;99414.97;5093015;28;19941;-42
2023/05/29 09:03:54;;;;;;;;;;;;;;;29.53;40.63;99429.28;5092765;28;20326;-43
2023/05/29 09:06:25;;;;;;;;;;;;;;;30.25;39.22;99423.44;5092879;28;20348;-45
2023/05/29 09:08:52;;;;;;;;;;;;;;;30.73;38.14;99423.75;5093210;28;19912;-42
2023/05/29 09:11:17;;;;;;;;;;;;;;;30.84;37.43;99427.63;5093150;28;20015;-41
2023/05/29 09:13:42;;;;;;;;;;;;;;;30.77;37.67;99424.69;5092613;28;20351;-43
2023/05/29 09:16:08;;;;;;;;;;;;;;;30.39;37.69;99426.69;5092634;28;19916;-43
2023/05/29 09:18:33;;;;;;;;;;;;;;;30.66;37.46;99421.63;5092439;28;19937;-42
2023/05/29 09:20:59;;;;;;;;;;;;;;;30.35;36.37;99424.97;5092543;28;19912;-42
2023/05/29 09:23:25;;;;;;;;;;;;;;;30.49;37.46;99425.41;5092665;28;20011;-41
2023/05/29 09:25:52;;;;;;;;;;;;;;;30.46;36.92;99422.56;5092424;28;19912;-45
2023/05/29 09:28:18;;;;;;;;;;;;;;;30.77;37.73;99430.97;5092415;28;20000;-40
2023/05/29 09:30:44;;;;;;;;;;;;;;;30.48;37.30;99418.34;5092341;28;20341;-42
2023/05/29 09:33:13;;;;;;;;;;;;;;;30.18;38.21;99424.03;5092085;28;19912;-43
2023/05/29 09:35:39;;;;;;;;;;;;;;;30.40;37.88;99424.72;5092246;28;19912;-43
2023/05/29 09:38:06;;;;;;;;;;;;;;;30.80;37.67;99423.97;5092673;28;19992;-42
2023/05/29 09:40:33;;;;;;;;;;;;;;;30.94;36.83;99423.66;5092598;28;19969;-43
2023/05/29 09:43:07;;;;;;;;;;;;;;;30.97;36.14;99417.44;5092173;28;19991;-43
2023/05/29 09:45:32;;;;;;;;;;;;;;;30.83;35.74;99417.81;5092517;28;19919;-43
2023/05/29 09:47:58;;;;;;;;;;;;;;;30.86;36.56;99416.31;5092171;28;19995;-42
2023/05/29 09:50:26;;;;;;;;;;;;;;;30.56;36.89;99416.63;5091825;28;19916;-42
2023/05/29 09:52:53;;;;;;;;;;;;;;;30.61;36.53;99408.13;5092196;28;19982;-41
2023/05/29 09:55:22;;;;;;;;;;;;;;;30.70;36.77;99408.78;5092106;28;20007;-42
2023/05/29 09:57:48;;;;;;;;;;;;;;;30.51;37.39;99398.41;5091740;28;20463;-43
2023/05/29 10:00:15;;;;;;;;;;;;;;;30.65;37.22;99398.03;5091920;28;19966;-42
2023/05/29 10:02:40;;;;;;;;;;;;;;;30.80;37.34;99396.53;5091975;28;19919;-44
2023/05/29 10:05:07;;;;;;;;;;;;;;;31.00;36.18;99392.03;5091718;28;19913;-42
2023/05/29 10:07:35;;;;;;;;;;;;;;;30.54;36.64;99392.25;5091864;28;20007;-42
2023/05/29 10:10:03;;;;;;;;;;;;;;;30.68;36.32;99389.13;5091865;28;20361;-42
2023/05/29 10:12:29;;;;;;;;;;;;;;;30.78;36.21;99393.31;5091438;28;19912;-41
2023/05/29 10:14:57;;;;;;;;;;;;;;;30.48;34.91;99384.59;5091869;28;20306;-41
2023/05/29 10:17:25;;;;;;;;;;;;;;;30.60;34.78;99379.09;5091451;28;20023;-42
2023/05/29 10:19:50;;;;;;;;;;;;;;;30.93;34.44;99373.41;5091664;28;19912;-42
2023/05/29 10:22:19;;;;;;;;;;;;;;;30.57;35.78;99382.50;5091607;28;20267;-43
2023/05/29 10:24:46;;;;;;;;;;;;;;;30.67;35.52;99379.28;5088646;28;19935;-42
2023/05/29 10:27:11;;;;;;;;;;;;;;;31.01;35.56;99382.63;5088062;28;19920;-44
2023/05/29 10:29:43;;;;;;;;;;;;;;;30.94;36.18;99366.75;5089139;28;20352;-43
2023/05/29 10:32:14;;;;;;;;;;;;;;;30.94;36.91;99369.50;5090906;28;19922;-42
2023/05/29 10:34:43;;;;;;;;;;;;;;;31.09;34.77;99365.22;5091188;28;20016;-41
2023/05/29 10:37:12;;;;;;;;;;;;;;;30.60;35.78;99366.16;5092743;28;19924;-42
2023/05/29 10:39:37;;;;;;;;;;;;;;;30.62;37.71;99362.28;5089264;28;19981;-42
2023/05/29 10:42:22;;;;;;;;;;;;;;;30.85;36.52;99365.28;5086304;28;20372;-41
2023/05/29 10:44:48;;;;;;;;;;;;;;;30.77;36.32;99362.31;5098932;28;21023;-40
2023/05/29 10:47:22;;;;;;;;;;;;;;;30.19;36.41;99361.72;5088232;28;19916;-42
2023/05/29 10:49:51;;;;;;;;;;;;;;;30.56;36.17;99359.75;5090691;28;20002;-45
2023/05/29 10:52:18;;;;;;;;;;;;;;;31.08;35.85;99360.88;5088421;28;19912;-42
2023/05/29 10:54:50;;;;;;;;;;;;;;;31.03;35.13;99363.84;5092039;28;20022;-42
2023/05/29 10:57:16;;;;;;;;;;;;;;;31.34;34.02;99360.41;5098923;28;20396;-43
2023/05/29 10:59:41;;;;;;;;;;;;;;;31.33;33.66;99355.25;5102286;28;19923;-42
2023/05/29 11:02:06;;;;;;;;;;;;;;;30.46;36.14;99357.47;5096598;28;19954;-44
2023/05/29 11:04:32;;;;;;;;;;;;;;;30.80;34.39;99361.63;5090553;28;19924;-36
2023/05/29 11:06:58;;;;;;;;;;;;;;;31.18;34.31;99359.56;5090707;28;19913;-36
2023/05/29 11:09:31;;;;;;;;;;;;;;;31.68;34.29;99355.41;5092454;28;20407;-36
2023/05/29 11:12:14;;;;;;;;;;;;;;;31.98;32.81;99357.69;5089436;28;19913;-36
2023/05/29 11:14:53;;;;;;;;;;;;;;;31.31;33.40;99357.56;5089600;28;19920;-36
2023/05/29 11:17:36;;;;;;;;;;;;;;;31.27;33.84;99357.44;5095434;28;19921;-37
2023/05/29 11:20:05;;;;;;;;;;;;;;;31.23;33.76;99353.03;5101639;28;19912;-36
2023/05/29 11:22:51;;;;;;;;;;;;;;;30.88;34.17;99342.59;5090735;28;19920;-38
2023/05/29 11:25:16;;;;;;;;;;;;;;;30.95;35.10;99348.31;5092972;28;19924;-42
2023/05/29 11:27:45;;;;;;;;;;;;;;;31.03;34.67;99344.63;5090471;28;19918;-42
2023/05/29 11:30:11;;;;;;;;;;;;;;;31.74;35.51;99331.19;5097441;28;20020;-42
2023/05/29 11:32:37;;;;;;;;;;;;;;;32.48;33.83;99331.34;5091108;28;19954;-39
2023/05/29 11:35:12;;;;;;;;;;;;;;;32.76;33.22;99329.56;5091236;28;19920;-43
2023/05/29 11:37:38;;;;;;;;;;;;;;;33.15;32.92;99338.63;5090758;28;20368;-41
2023/05/29 11:40:05;;;;;;;;;;;;;;;33.29;30.60;99335.31;5090598;28;20003;-43
2023/05/29 11:42:31;;;;;;;;;;;;;;;32.51;31.77;99336.09;5088746;28;20103;-42
2023/05/29 11:45:09;;;;;;;;;;;;;;;31.44;33.92;99333.53;5090290;28;20098;-42
2023/05/29 11:47:49;;;;;;;;;;;;;;;30.35;36.01;99326.97;5089172;28;20215;-42
2023/05/29 11:50:18;;;;;;;;;;;;;;;31.28;35.43;99328.84;5089263;28;19924;-42
2023/05/29 11:52:47;;;;;;;;;;;;;;;31.98;34.92;99326.63;5090911;28;19969;-42
2023/05/29 11:55:12;;;;;;;;;;;;;;;32.37;33.61;99315.72;5093280;28;19927;-43
2023/05/29 11:57:37;;;;;;;;;;;;;;;31.87;32.75;99318.13;5094195;28;19916;-41
2023/05/29 12:00:09;;;;;;;;;;;;;;;30.62;33.96;99304.63;5094040;28;19916;-42
2023/05/29 12:02:37;;;;;;;;;;;;;;;29.89;37.39;99309.03;5089026;28;19942;-42
2023/05/29 12:05:04;;;;;;;;;;;;;;;31.08;35.13;99299.63;5091336;28;19916;-41
2023/05/29 12:07:29;;;;;;;;;;;;;;;31.67;34.85;99298.00;5094035;28;19960;-43
2023/05/29 12:09:57;;;;;;;;;;;;;;;30.67;35.49;99294.16;5093978;28;20400;-44
2023/05/29 12:12:23;;;;;;;;;;;;;;;31.03;34.99;99291.63;5092721;28;19923;-43
2023/05/29 12:14:52;;;;;;;;;;;;;;;31.48;34.46;99291.25;5093687;28;20014;-44
2023/05/29 12:17:17;;;;;;;;;;;;;;;31.59;33.65;99293.47;5093721;28;19916;-43
2023/05/29 12:19:43;;;;;;;;;;;;;;;31.48;33.80;99302.25;5093832;28;19965;-42
2023/05/29 12:22:08;;;;;;;;;;;;;;;31.88;32.84;99301.25;5092447;28;19916;-43
2023/05/29 12:24:34;;;;;;;;;;;;;;;31.82;34.18;99294.44;5092040;28;19912;-42
2023/05/29 12:27:04;;;;;;;;;;;;;;;32.43;33.29;99295.03;5092282;28;19912;-42
2023/05/29 12:29:29;;;;;;;;;;;;;;;33.00;32.07;99304.44;5092461;28;20086;-44
2023/05/29 12:31:58;;;;;;;;;;;;;;;32.95;32.76;99301.97;5092160;28;20007;-42
2023/05/29 12:34:24;;;;;;;;;;;;;;;32.06;33.22;99298.16;5092719;28;19969;-42
2023/05/29 12:36:49;;;;;;;;;;;;;;;32.49;32.68;99299.88;5092535;28;20026;-40
2023/05/29 12:39:14;;;;;;;;;;;;;;;32.86;31.39;99291.22;5092829;28;20352;-43
2023/05/29 12:41:40;;;;;;;;;;;;;;;33.20;30.70;99285.94;5092911;28;19919;-43
2023/05/29 12:44:06;;;;;;;;;;;;;;;33.18;29.61;99290.22;5092877;28;20060;-41